sensor_id;sensor_type;location;lat;lon;timestamp;P1;durP1;ratioP1;P2;durP2;ratioP2
13927;SDS011;7036;50.834;4.718;2022-11-10T00:02:19;4.25;;;1.65;;
13927;SDS011;7036;50.834;4.718;2022-11-10T00:04:47;3.58;;;1.55;;
13927;SDS011;7036;50.834;4.718;2022-11-10T00:07:15;2.67;;;1.35;;
13927;SDS011;7036;50.834;4.718;2022-11-10T00:09:43;3.28;;;1.65;;
13927;SDS011;7036;50.834;4.718;2022-11-10T00:12:10;1.75;;;1.45;;
13927;SDS011;7036;50.834;4.718;2022-11-10T00:14:37;2.58;;;1.30;;
13927;SDS011;7036;50.834;4.718;2022-11-10T00:17:23;4.53;;;1.80;;
13927;SDS011;7036;50.834;4.718;2022-11-10T00:19:50;2.37;;;1.43;;
13927;SDS011;7036;50.834;4.718;2022-11-10T00:22:17;3.00;;;1.47;;
13927;SDS011;7036;50.834;4.718;2022-11-10T00:24:45;3.58;;;1.95;;
13927;SDS011;7036;50.834;4.718;2022-11-10T00:27:13;2.90;;;1.50;;
13927;SDS011;7036;50.834;4.718;2022-11-10T00:29:40;2.70;;;2.10;;
13927;SDS011;7036;50.834;4.718;2022-11-10T00:32:08;5.15;;;1.50;;
13927;SDS011;7036;50.834;4.718;2022-11-10T00:34:35;2.78;;;1.52;;
13927;SDS011;7036;50.834;4.718;2022-11-10T00:37:04;4.47;;;2.17;;
13927;SDS011;7036;50.834;4.718;2022-11-10T00:39:31;2.93;;;1.40;;
13927;SDS011;7036;50.834;4.718;2022-11-10T00:41:59;2.70;;;1.98;;
13927;SDS011;7036;50.834;4.718;2022-11-10T00:44:27;2.92;;;1.60;;
13927;SDS011;7036;50.834;4.718;2022-11-10T00:46:55;4.05;;;1.90;;
13927;SDS011;7036;50.834;4.718;2022-11-10T00:49:22;3.08;;;1.48;;
13927;SDS011;7036;50.834;4.718;2022-11-10T00:51:50;2.50;;;1.67;;
13927;SDS011;7036;50.834;4.718;2022-11-10T00:54:18;3.15;;;1.23;;
13927;SDS011;7036;50.834;4.718;2022-11-10T00:56:46;1.83;;;1.45;;
13927;SDS011;7036;50.834;4.718;2022-11-10T00:59:14;3.00;;;1.45;;
13927;SDS011;7036;50.834;4.718;2022-11-10T01:01:43;2.95;;;1.80;;
13927;SDS011;7036;50.834;4.718;2022-11-10T01:04:10;2.37;;;1.77;;
13927;SDS011;7036;50.834;4.718;2022-11-10T01:06:39;3.30;;;1.70;;
13927;SDS011;7036;50.834;4.718;2022-11-10T01:09:06;3.27;;;1.87;;
13927;SDS011;7036;50.834;4.718;2022-11-10T01:11:34;1.88;;;1.60;;
13927;SDS011;7036;50.834;4.718;2022-11-10T01:14:02;4.18;;;1.45;;
13927;SDS011;7036;50.834;4.718;2022-11-10T01:16:30;2.58;;;1.60;;
13927;SDS011;7036;50.834;4.718;2022-11-10T01:18:58;3.45;;;1.52;;
13927;SDS011;7036;50.834;4.718;2022-11-10T01:21:25;2.17;;;1.40;;
13927;SDS011;7036;50.834;4.718;2022-11-10T01:23:53;1.92;;;1.40;;
13927;SDS011;7036;50.834;4.718;2022-11-10T01:26:21;2.50;;;1.50;;
13927;SDS011;7036;50.834;4.718;2022-11-10T01:28:48;3.60;;;1.60;;
13927;SDS011;7036;50.834;4.718;2022-11-10T01:31:17;2.65;;;1.50;;
13927;SDS011;7036;50.834;4.718;2022-11-10T01:33:44;2.50;;;1.40;;
13927;SDS011;7036;50.834;4.718;2022-11-10T01:36:12;2.17;;;1.42;;
13927;SDS011;7036;50.834;4.718;2022-11-10T01:38:40;5.93;;;2.25;;
13927;SDS011;7036;50.834;4.718;2022-11-10T01:41:09;2.13;;;1.63;;
13927;SDS011;7036;50.834;4.718;2022-11-10T01:43:36;3.80;;;1.60;;
13927;SDS011;7036;50.834;4.718;2022-11-10T01:46:05;4.07;;;1.55;;
13927;SDS011;7036;50.834;4.718;2022-11-10T01:53:48;1.87;;;1.33;;
13927;SDS011;7036;50.834;4.718;2022-11-10T01:56:13;2.15;;;1.40;;
13927;SDS011;7036;50.834;4.718;2022-11-10T01:58:42;2.90;;;1.70;;
13927;SDS011;7036;50.834;4.718;2022-11-10T02:01:07;3.72;;;1.83;;
13927;SDS011;7036;50.834;4.718;2022-11-10T02:03:39;5.22;;;1.65;;
13927;SDS011;7036;50.834;4.718;2022-11-10T02:06:05;2.90;;;2.07;;
13927;SDS011;7036;50.834;4.718;2022-11-10T02:08:32;2.60;;;1.77;;
13927;SDS011;7036;50.834;4.718;2022-11-10T02:10:59;2.60;;;1.47;;
13927;SDS011;7036;50.834;4.718;2022-11-10T02:13:26;3.20;;;1.73;;
13927;SDS011;7036;50.834;4.718;2022-11-10T02:15:54;3.05;;;1.90;;
13927;SDS011;7036;50.834;4.718;2022-11-10T02:18:22;3.08;;;1.70;;
13927;SDS011;7036;50.834;4.718;2022-11-10T02:20:49;3.50;;;2.00;;
13927;SDS011;7036;50.834;4.718;2022-11-10T02:25:56;3.10;;;1.80;;
13927;SDS011;7036;50.834;4.718;2022-11-10T02:28:24;3.90;;;1.65;;
13927;SDS011;7036;50.834;4.718;2022-11-10T02:30:52;3.40;;;1.90;;
13927;SDS011;7036;50.834;4.718;2022-11-10T02:33:20;3.65;;;1.73;;
13927;SDS011;7036;50.834;4.718;2022-11-10T02:35:48;3.35;;;1.50;;
13927;SDS011;7036;50.834;4.718;2022-11-10T02:38:16;2.92;;;1.20;;
13927;SDS011;7036;50.834;4.718;2022-11-10T02:40:44;4.78;;;1.80;;
13927;SDS011;7036;50.834;4.718;2022-11-10T02:43:12;2.30;;;1.63;;
13927;SDS011;7036;50.834;4.718;2022-11-10T02:45:40;2.70;;;1.65;;
13927;SDS011;7036;50.834;4.718;2022-11-10T02:48:11;3.17;;;2.00;;
13927;SDS011;7036;50.834;4.718;2022-11-10T02:50:38;4.78;;;1.70;;
13927;SDS011;7036;50.834;4.718;2022-11-10T02:53:05;2.97;;;1.38;;
13927;SDS011;7036;50.834;4.718;2022-11-10T02:55:33;2.83;;;1.88;;
13927;SDS011;7036;50.834;4.718;2022-11-10T02:58:01;2.88;;;1.55;;
13927;SDS011;7036;50.834;4.718;2022-11-10T03:00:29;3.05;;;1.80;;
13927;SDS011;7036;50.834;4.718;2022-11-10T03:02:57;6.13;;;1.70;;
13927;SDS011;7036;50.834;4.718;2022-11-10T03:05:24;3.38;;;1.65;;
13927;SDS011;7036;50.834;4.718;2022-11-10T03:07:55;2.05;;;1.77;;
13927;SDS011;7036;50.834;4.718;2022-11-10T03:10:20;2.60;;;1.50;;
13927;SDS011;7036;50.834;4.718;2022-11-10T03:12:48;3.60;;;1.67;;
13927;SDS011;7036;50.834;4.718;2022-11-10T03:15:16;1.70;;;1.60;;
13927;SDS011;7036;50.834;4.718;2022-11-10T03:17:43;2.95;;;1.88;;
13927;SDS011;7036;50.834;4.718;2022-11-10T03:20:12;1.88;;;1.50;;
13927;SDS011;7036;50.834;4.718;2022-11-10T03:22:40;2.27;;;1.53;;
13927;SDS011;7036;50.834;4.718;2022-11-10T03:25:08;3.23;;;1.50;;
13927;SDS011;7036;50.834;4.718;2022-11-10T03:27:34;3.13;;;1.57;;
13927;SDS011;7036;50.834;4.718;2022-11-10T03:30:03;1.75;;;1.40;;
13927;SDS011;7036;50.834;4.718;2022-11-10T03:32:31;1.83;;;1.23;;
13927;SDS011;7036;50.834;4.718;2022-11-10T03:34:58;2.63;;;1.33;;
13927;SDS011;7036;50.834;4.718;2022-11-10T03:37:25;3.13;;;1.77;;
13927;SDS011;7036;50.834;4.718;2022-11-10T03:39:53;2.15;;;1.30;;
13927;SDS011;7036;50.834;4.718;2022-11-10T03:42:21;2.72;;;1.70;;
13927;SDS011;7036;50.834;4.718;2022-11-10T03:44:49;5.95;;;1.90;;
13927;SDS011;7036;50.834;4.718;2022-11-10T03:47:17;3.38;;;1.70;;
13927;SDS011;7036;50.834;4.718;2022-11-10T03:49:44;1.75;;;1.50;;
13927;SDS011;7036;50.834;4.718;2022-11-10T03:52:12;2.00;;;1.20;;
13927;SDS011;7036;50.834;4.718;2022-11-10T03:54:40;3.58;;;1.83;;
13927;SDS011;7036;50.834;4.718;2022-11-10T03:57:07;1.85;;;1.50;;
13927;SDS011;7036;50.834;4.718;2022-11-10T03:59:35;2.38;;;1.70;;
13927;SDS011;7036;50.834;4.718;2022-11-10T04:02:02;3.55;;;1.50;;
13927;SDS011;7036;50.834;4.718;2022-11-10T04:04:30;2.22;;;1.50;;
13927;SDS011;7036;50.834;4.718;2022-11-10T04:06:57;3.75;;;1.85;;
13927;SDS011;7036;50.834;4.718;2022-11-10T04:09:42;3.20;;;1.80;;
13927;SDS011;7036;50.834;4.718;2022-11-10T04:12:09;2.92;;;1.95;;
13927;SDS011;7036;50.834;4.718;2022-11-10T04:14:54;2.47;;;1.50;;
13927;SDS011;7036;50.834;4.718;2022-11-10T04:17:39;2.83;;;1.27;;
13927;SDS011;7036;50.834;4.718;2022-11-10T04:20:07;3.75;;;1.52;;
13927;SDS011;7036;50.834;4.718;2022-11-10T04:22:34;2.63;;;1.70;;
13927;SDS011;7036;50.834;4.718;2022-11-10T04:25:19;4.73;;;2.07;;
13927;SDS011;7036;50.834;4.718;2022-11-10T04:27:46;3.13;;;1.65;;
13927;SDS011;7036;50.834;4.718;2022-11-10T04:30:14;1.63;;;1.40;;
13927;SDS011;7036;50.834;4.718;2022-11-10T04:32:42;2.85;;;1.40;;
13927;SDS011;7036;50.834;4.718;2022-11-10T04:35:10;2.22;;;1.55;;
13927;SDS011;7036;50.834;4.718;2022-11-10T04:37:38;1.90;;;1.30;;
13927;SDS011;7036;50.834;4.718;2022-11-10T04:40:06;2.88;;;1.70;;
13927;SDS011;7036;50.834;4.718;2022-11-10T04:42:33;2.40;;;1.50;;
13927;SDS011;7036;50.834;4.718;2022-11-10T04:45:00;3.07;;;1.97;;
13927;SDS011;7036;50.834;4.718;2022-11-10T04:47:28;2.15;;;1.50;;
13927;SDS011;7036;50.834;4.718;2022-11-10T04:49:55;2.60;;;1.63;;
13927;SDS011;7036;50.834;4.718;2022-11-10T04:52:23;5.97;;;1.70;;
13927;SDS011;7036;50.834;4.718;2022-11-10T04:54:51;3.00;;;1.50;;
13927;SDS011;7036;50.834;4.718;2022-11-10T04:57:19;3.95;;;2.03;;
13927;SDS011;7036;50.834;4.718;2022-11-10T04:59:47;1.83;;;1.52;;
13927;SDS011;7036;50.834;4.718;2022-11-10T05:02:14;3.70;;;1.40;;
13927;SDS011;7036;50.834;4.718;2022-11-10T05:04:42;4.22;;;1.73;;
13927;SDS011;7036;50.834;4.718;2022-11-10T05:07:09;3.58;;;1.65;;
13927;SDS011;7036;50.834;4.718;2022-11-10T05:09:37;5.10;;;1.65;;
13927;SDS011;7036;50.834;4.718;2022-11-10T05:12:04;5.40;;;2.28;;
13927;SDS011;7036;50.834;4.718;2022-11-10T05:14:32;2.10;;;1.73;;
13927;SDS011;7036;50.834;4.718;2022-11-10T05:17:00;3.15;;;1.73;;
13927;SDS011;7036;50.834;4.718;2022-11-10T05:19:28;3.85;;;2.00;;
13927;SDS011;7036;50.834;4.718;2022-11-10T05:21:56;4.50;;;1.75;;
13927;SDS011;7036;50.834;4.718;2022-11-10T05:24:24;3.08;;;1.30;;
13927;SDS011;7036;50.834;4.718;2022-11-10T05:26:51;4.28;;;1.83;;
13927;SDS011;7036;50.834;4.718;2022-11-10T05:29:19;4.15;;;1.90;;
13927;SDS011;7036;50.834;4.718;2022-11-10T05:31:47;4.18;;;1.80;;
13927;SDS011;7036;50.834;4.718;2022-11-10T05:34:15;2.30;;;1.50;;
13927;SDS011;7036;50.834;4.718;2022-11-10T05:36:43;3.72;;;1.52;;
13927;SDS011;7036;50.834;4.718;2022-11-10T05:39:11;2.25;;;1.52;;
13927;SDS011;7036;50.834;4.718;2022-11-10T05:41:39;3.53;;;1.77;;
13927;SDS011;7036;50.834;4.718;2022-11-10T05:44:07;4.00;;;2.10;;
13927;SDS011;7036;50.834;4.718;2022-11-10T05:46:35;4.85;;;1.75;;
13927;SDS011;7036;50.834;4.718;2022-11-10T05:49:02;4.28;;;1.70;;
13927;SDS011;7036;50.834;4.718;2022-11-10T05:51:30;5.70;;;1.45;;
13927;SDS011;7036;50.834;4.718;2022-11-10T05:53:58;4.03;;;1.77;;
13927;SDS011;7036;50.834;4.718;2022-11-10T05:56:26;2.88;;;2.03;;
13927;SDS011;7036;50.834;4.718;2022-11-10T05:58:53;4.47;;;1.90;;
13927;SDS011;7036;50.834;4.718;2022-11-10T06:01:21;3.60;;;1.88;;
13927;SDS011;7036;50.834;4.718;2022-11-10T06:03:49;4.78;;;1.55;;
13927;SDS011;7036;50.834;4.718;2022-11-10T06:06:17;2.15;;;1.63;;
13927;SDS011;7036;50.834;4.718;2022-11-10T06:08:44;2.20;;;1.55;;
13927;SDS011;7036;50.834;4.718;2022-11-10T06:11:11;2.13;;;1.25;;
13927;SDS011;7036;50.834;4.718;2022-11-10T06:13:39;2.28;;;1.60;;
13927;SDS011;7036;50.834;4.718;2022-11-10T06:16:07;3.05;;;1.27;;
13927;SDS011;7036;50.834;4.718;2022-11-10T06:18:35;3.38;;;1.63;;
13927;SDS011;7036;50.834;4.718;2022-11-10T06:21:03;2.67;;;1.50;;
13927;SDS011;7036;50.834;4.718;2022-11-10T06:23:31;2.17;;;1.45;;
13927;SDS011;7036;50.834;4.718;2022-11-10T06:25:59;3.08;;;1.65;;
13927;SDS011;7036;50.834;4.718;2022-11-10T06:28:27;2.90;;;1.70;;
13927;SDS011;7036;50.834;4.718;2022-11-10T06:30:55;2.72;;;1.48;;
13927;SDS011;7036;50.834;4.718;2022-11-10T06:33:23;2.42;;;1.38;;
13927;SDS011;7036;50.834;4.718;2022-11-10T06:35:51;2.10;;;1.23;;
13927;SDS011;7036;50.834;4.718;2022-11-10T06:38:18;2.67;;;1.35;;
13927;SDS011;7036;50.834;4.718;2022-11-10T06:40:45;1.75;;;1.30;;
13927;SDS011;7036;50.834;4.718;2022-11-10T06:43:12;3.38;;;1.55;;
13927;SDS011;7036;50.834;4.718;2022-11-10T06:45:40;2.00;;;1.80;;
13927;SDS011;7036;50.834;4.718;2022-11-10T06:50:40;2.77;;;1.40;;
13927;SDS011;7036;50.834;4.718;2022-11-10T06:53:08;3.10;;;1.67;;
13927;SDS011;7036;50.834;4.718;2022-11-10T06:55:35;1.60;;;1.35;;
13927;SDS011;7036;50.834;4.718;2022-11-10T06:58:04;2.63;;;1.35;;
13927;SDS011;7036;50.834;4.718;2022-11-10T07:00:30;2.27;;;1.40;;
13927;SDS011;7036;50.834;4.718;2022-11-10T07:03:04;1.35;;;1.23;;
13927;SDS011;7036;50.834;4.718;2022-11-10T07:05:31;3.10;;;1.40;;
13927;SDS011;7036;50.834;4.718;2022-11-10T07:08:01;2.97;;;1.40;;
13927;SDS011;7036;50.834;4.718;2022-11-10T07:10:28;2.78;;;1.50;;
13927;SDS011;7036;50.834;4.718;2022-11-10T07:12:56;3.00;;;1.70;;
13927;SDS011;7036;50.834;4.718;2022-11-10T07:15:22;2.67;;;1.60;;
13927;SDS011;7036;50.834;4.718;2022-11-10T07:17:51;2.45;;;1.45;;
13927;SDS011;7036;50.834;4.718;2022-11-10T07:20:18;2.77;;;1.50;;
13927;SDS011;7036;50.834;4.718;2022-11-10T07:22:46;2.63;;;1.40;;
13927;SDS011;7036;50.834;4.718;2022-11-10T07:25:14;2.58;;;1.23;;
13927;SDS011;7036;50.834;4.718;2022-11-10T07:27:42;2.60;;;1.38;;
13927;SDS011;7036;50.834;4.718;2022-11-10T07:30:10;3.10;;;1.48;;
13927;SDS011;7036;50.834;4.718;2022-11-10T07:32:37;3.10;;;1.58;;
13927;SDS011;7036;50.834;4.718;2022-11-10T07:35:05;4.10;;;1.65;;
13927;SDS011;7036;50.834;4.718;2022-11-10T07:37:32;4.65;;;1.55;;
13927;SDS011;7036;50.834;4.718;2022-11-10T07:40:00;2.83;;;1.90;;
13927;SDS011;7036;50.834;4.718;2022-11-10T07:42:28;1.83;;;1.30;;
13927;SDS011;7036;50.834;4.718;2022-11-10T07:44:55;3.42;;;1.42;;
13927;SDS011;7036;50.834;4.718;2022-11-10T07:47:23;4.03;;;1.38;;
13927;SDS011;7036;50.834;4.718;2022-11-10T07:49:50;4.57;;;1.77;;
13927;SDS011;7036;50.834;4.718;2022-11-10T07:52:18;3.55;;;1.52;;
13927;SDS011;7036;50.834;4.718;2022-11-10T07:54:45;2.67;;;1.45;;
13927;SDS011;7036;50.834;4.718;2022-11-10T07:57:12;5.32;;;1.85;;
13927;SDS011;7036;50.834;4.718;2022-11-10T07:59:39;5.00;;;1.88;;
13927;SDS011;7036;50.834;4.718;2022-11-10T08:02:08;5.95;;;2.05;;
13927;SDS011;7036;50.834;4.718;2022-11-10T08:04:34;4.60;;;1.48;;
13927;SDS011;7036;50.834;4.718;2022-11-10T08:07:02;6.63;;;2.17;;
13927;SDS011;7036;50.834;4.718;2022-11-10T08:09:30;6.60;;;1.77;;
13927;SDS011;7036;50.834;4.718;2022-11-10T08:11:58;5.07;;;1.77;;
13927;SDS011;7036;50.834;4.718;2022-11-10T08:14:26;6.00;;;2.33;;
13927;SDS011;7036;50.834;4.718;2022-11-10T08:16:54;5.75;;;2.53;;
13927;SDS011;7036;50.834;4.718;2022-11-10T08:19:22;4.72;;;1.85;;
13927;SDS011;7036;50.834;4.718;2022-11-10T08:21:50;7.15;;;2.53;;
13927;SDS011;7036;50.834;4.718;2022-11-10T08:24:18;6.80;;;2.25;;
13927;SDS011;7036;50.834;4.718;2022-11-10T08:26:46;6.13;;;2.40;;
13927;SDS011;7036;50.834;4.718;2022-11-10T08:29:16;6.63;;;2.60;;
13927;SDS011;7036;50.834;4.718;2022-11-10T08:31:42;11.87;;;2.27;;
13927;SDS011;7036;50.834;4.718;2022-11-10T08:34:10;5.70;;;1.80;;
13927;SDS011;7036;50.834;4.718;2022-11-10T08:36:38;5.10;;;1.77;;
13927;SDS011;7036;50.834;4.718;2022-11-10T08:39:06;3.97;;;1.92;;
13927;SDS011;7036;50.834;4.718;2022-11-10T08:41:34;9.32;;;2.58;;
13927;SDS011;7036;50.834;4.718;2022-11-10T08:44:02;12.60;;;2.45;;
13927;SDS011;7036;50.834;4.718;2022-11-10T08:46:29;5.27;;;1.67;;
13927;SDS011;7036;50.834;4.718;2022-11-10T08:48:56;3.88;;;2.03;;
13927;SDS011;7036;50.834;4.718;2022-11-10T08:51:24;5.90;;;2.50;;
13927;SDS011;7036;50.834;4.718;2022-11-10T08:53:52;5.60;;;2.13;;
13927;SDS011;7036;50.834;4.718;2022-11-10T08:56:20;3.97;;;2.00;;
13927;SDS011;7036;50.834;4.718;2022-11-10T08:58:47;7.43;;;2.03;;
13927;SDS011;7036;50.834;4.718;2022-11-10T09:01:15;4.45;;;2.17;;
13927;SDS011;7036;50.834;4.718;2022-11-10T09:03:43;3.42;;;2.10;;
13927;SDS011;7036;50.834;4.718;2022-11-10T09:06:11;3.83;;;1.88;;
13927;SDS011;7036;50.834;4.718;2022-11-10T09:08:39;5.07;;;2.15;;
13927;SDS011;7036;50.834;4.718;2022-11-10T09:11:07;7.60;;;2.83;;
13927;SDS011;7036;50.834;4.718;2022-11-10T09:13:35;9.05;;;2.15;;
13927;SDS011;7036;50.834;4.718;2022-11-10T09:16:03;6.38;;;1.85;;
13927;SDS011;7036;50.834;4.718;2022-11-10T09:18:31;6.72;;;2.25;;
13927;SDS011;7036;50.834;4.718;2022-11-10T09:21:00;5.57;;;2.20;;
13927;SDS011;7036;50.834;4.718;2022-11-10T09:23:26;5.30;;;1.95;;
13927;SDS011;7036;50.834;4.718;2022-11-10T09:25:54;6.43;;;2.08;;
13927;SDS011;7036;50.834;4.718;2022-11-10T09:28:22;6.80;;;1.95;;
13927;SDS011;7036;50.834;4.718;2022-11-10T09:30:50;7.50;;;2.40;;
13927;SDS011;7036;50.834;4.718;2022-11-10T09:33:18;6.15;;;2.35;;
13927;SDS011;7036;50.834;4.718;2022-11-10T09:35:47;3.25;;;1.83;;
13927;SDS011;7036;50.834;4.718;2022-11-10T09:38:13;9.47;;;2.53;;
13927;SDS011;7036;50.834;4.718;2022-11-10T09:40:48;9.45;;;2.30;;
13927;SDS011;7036;50.834;4.718;2022-11-10T09:43:19;5.37;;;2.10;;
13927;SDS011;7036;50.834;4.718;2022-11-10T09:45:49;9.57;;;2.93;;
13927;SDS011;7036;50.834;4.718;2022-11-10T09:48:29;10.98;;;2.55;;
13927;SDS011;7036;50.834;4.718;2022-11-10T09:51:00;6.67;;;2.10;;
13927;SDS011;7036;50.834;4.718;2022-11-10T09:53:26;7.03;;;2.17;;
13927;SDS011;7036;50.834;4.718;2022-11-10T09:55:57;4.97;;;1.80;;
13927;SDS011;7036;50.834;4.718;2022-11-10T09:58:24;6.83;;;2.23;;
13927;SDS011;7036;50.834;4.718;2022-11-10T10:00:54;7.30;;;2.30;;
13927;SDS011;7036;50.834;4.718;2022-11-10T10:03:18;7.18;;;2.40;;
13927;SDS011;7036;50.834;4.718;2022-11-10T10:08:38;7.17;;;2.40;;
13927;SDS011;7036;50.834;4.718;2022-11-10T10:11:08;4.87;;;2.00;;
13927;SDS011;7036;50.834;4.718;2022-11-10T10:13:54;5.33;;;2.20;;
13927;SDS011;7036;50.834;4.718;2022-11-10T10:22:31;6.87;;;2.13;;
13927;SDS011;7036;50.834;4.718;2022-11-10T10:24:51;4.90;;;1.67;;
13927;SDS011;7036;50.834;4.718;2022-11-10T10:27:20;4.50;;;2.20;;
13927;SDS011;7036;50.834;4.718;2022-11-10T10:29:48;9.00;;;2.33;;
13927;SDS011;7036;50.834;4.718;2022-11-10T10:32:16;4.10;;;2.15;;
13927;SDS011;7036;50.834;4.718;2022-11-10T10:34:44;4.70;;;2.30;;
13927;SDS011;7036;50.834;4.718;2022-11-10T10:37:19;5.80;;;2.67;;
13927;SDS011;7036;50.834;4.718;2022-11-10T10:39:52;6.87;;;2.27;;
13927;SDS011;7036;50.834;4.718;2022-11-10T10:42:27;4.00;;;2.13;;
13927;SDS011;7036;50.834;4.718;2022-11-10T10:47:48;5.03;;;2.30;;
13927;SDS011;7036;50.834;4.718;2022-11-10T10:50:32;5.77;;;2.27;;
13927;SDS011;7036;50.834;4.718;2022-11-10T10:53:05;6.10;;;1.93;;
13927;SDS011;7036;50.834;4.718;2022-11-10T10:55:48;4.37;;;2.40;;
13927;SDS011;7036;50.834;4.718;2022-11-10T10:58:20;7.27;;;2.77;;
13927;SDS011;7036;50.834;4.718;2022-11-10T11:00:46;7.75;;;3.60;;
13927;SDS011;7036;50.834;4.718;2022-11-10T11:03:24;6.30;;;2.90;;
13927;SDS011;7036;50.834;4.718;2022-11-10T11:06:02;7.13;;;2.57;;
13927;SDS011;7036;50.834;4.718;2022-11-10T11:08:31;6.50;;;2.70;;
13927;SDS011;7036;50.834;4.718;2022-11-10T11:11:06;9.82;;;2.80;;
13927;SDS011;7036;50.834;4.718;2022-11-10T11:13:32;6.40;;;2.60;;
13927;SDS011;7036;50.834;4.718;2022-11-10T11:16:03;4.63;;;2.25;;
13927;SDS011;7036;50.834;4.718;2022-11-10T11:18:29;3.33;;;1.88;;
13927;SDS011;7036;50.834;4.718;2022-11-10T11:24:42;5.10;;;2.23;;
13927;SDS011;7036;50.834;4.718;2022-11-10T11:29:05;5.97;;;2.50;;
13927;SDS011;7036;50.834;4.718;2022-11-10T11:36:48;6.93;;;3.37;;
13927;SDS011;7036;50.834;4.718;2022-11-10T11:39:24;6.97;;;2.57;;
13927;SDS011;7036;50.834;4.718;2022-11-10T11:44:48;5.00;;;2.20;;
13927;SDS011;7036;50.834;4.718;2022-11-10T11:47:39;6.77;;;2.70;;
13927;SDS011;7036;50.834;4.718;2022-11-10T11:52:54;4.90;;;2.57;;
13927;SDS011;7036;50.834;4.718;2022-11-10T11:58:19;5.00;;;2.37;;
13927;SDS011;7036;50.834;4.718;2022-11-10T12:06:09;5.90;;;3.50;;
13927;SDS011;7036;50.834;4.718;2022-11-10T12:08:38;7.83;;;3.27;;
13927;SDS011;7036;50.834;4.718;2022-11-10T12:11:26;6.43;;;3.57;;
13927;SDS011;7036;50.834;4.718;2022-11-10T12:13:58;10.47;;;3.90;;
13927;SDS011;7036;50.834;4.718;2022-11-10T12:16:30;6.83;;;3.43;;
13927;SDS011;7036;50.834;4.718;2022-11-10T12:21:50;7.60;;;3.50;;
13927;SDS011;7036;50.834;4.718;2022-11-10T12:27:08;9.80;;;4.00;;
13927;SDS011;7036;50.834;4.718;2022-11-10T12:29:40;9.23;;;3.57;;
13927;SDS011;7036;50.834;4.718;2022-11-10T12:32:24;11.23;;;4.03;;
13927;SDS011;7036;50.834;4.718;2022-11-10T12:35:00;8.30;;;3.67;;
13927;SDS011;7036;50.834;4.718;2022-11-10T12:37:34;8.60;;;3.20;;
13927;SDS011;7036;50.834;4.718;2022-11-10T12:42:29;7.43;;;3.40;;
13927;SDS011;7036;50.834;4.718;2022-11-10T12:44:57;7.97;;;3.47;;
13927;SDS011;7036;50.834;4.718;2022-11-10T12:47:28;9.90;;;3.43;;
13927;SDS011;7036;50.834;4.718;2022-11-10T12:49:59;8.75;;;3.25;;
13927;SDS011;7036;50.834;4.718;2022-11-10T12:52:22;13.43;;;3.77;;
13927;SDS011;7036;50.834;4.718;2022-11-10T12:54:59;13.40;;;3.63;;
13927;SDS011;7036;50.834;4.718;2022-11-10T12:57:26;11.20;;;3.50;;
13927;SDS011;7036;50.834;4.718;2022-11-10T12:59:58;9.50;;;3.47;;
13927;SDS011;7036;50.834;4.718;2022-11-10T13:02:30;8.50;;;3.33;;
13927;SDS011;7036;50.834;4.718;2022-11-10T13:05:30;8.00;;;3.23;;
13927;SDS011;7036;50.834;4.718;2022-11-10T13:07:36;6.88;;;3.33;;
13927;SDS011;7036;50.834;4.718;2022-11-10T13:18:08;11.30;;;3.40;;
13927;SDS011;7036;50.834;4.718;2022-11-10T13:23:25;8.13;;;2.80;;
13927;SDS011;7036;50.834;4.718;2022-11-10T13:25:58;9.13;;;2.90;;
13927;SDS011;7036;50.834;4.718;2022-11-10T13:34:10;10.23;;;2.90;;
13927;SDS011;7036;50.834;4.718;2022-11-10T13:36:46;6.63;;;2.47;;
13927;SDS011;7036;50.834;4.718;2022-11-10T13:41:45;10.67;;;2.87;;
13927;SDS011;7036;50.834;4.718;2022-11-10T13:44:27;5.63;;;2.97;;
13927;SDS011;7036;50.834;4.718;2022-11-10T13:52:26;6.40;;;2.53;;
13927;SDS011;7036;50.834;4.718;2022-11-10T13:54:56;9.43;;;3.00;;
13927;SDS011;7036;50.834;4.718;2022-11-10T13:57:23;5.00;;;1.83;;
13927;SDS011;7036;50.834;4.718;2022-11-10T13:59:49;5.63;;;2.60;;
13927;SDS011;7036;50.834;4.718;2022-11-10T14:05:01;4.27;;;2.60;;
13927;SDS011;7036;50.834;4.718;2022-11-10T14:07:38;6.53;;;2.37;;
13927;SDS011;7036;50.834;4.718;2022-11-10T14:10:04;5.70;;;2.50;;
13927;SDS011;7036;50.834;4.718;2022-11-10T14:12:37;4.13;;;2.40;;
13927;SDS011;7036;50.834;4.718;2022-11-10T14:15:04;5.40;;;2.17;;
13927;SDS011;7036;50.834;4.718;2022-11-10T14:17:34;6.60;;;3.63;;
13927;SDS011;7036;50.834;4.718;2022-11-10T14:20:00;5.40;;;2.70;;
13927;SDS011;7036;50.834;4.718;2022-11-10T14:22:29;5.00;;;2.20;;
13927;SDS011;7036;50.834;4.718;2022-11-10T14:25:19;7.67;;;3.00;;
13927;SDS011;7036;50.834;4.718;2022-11-10T14:27:50;4.47;;;2.77;;
13927;SDS011;7036;50.834;4.718;2022-11-10T14:30:22;7.18;;;2.75;;
13927;SDS011;7036;50.834;4.718;2022-11-10T14:32:57;8.10;;;3.93;;
13927;SDS011;7036;50.834;4.718;2022-11-10T14:35:25;5.37;;;2.53;;
13927;SDS011;7036;50.834;4.718;2022-11-10T14:38:02;7.63;;;2.63;;
13927;SDS011;7036;50.834;4.718;2022-11-10T14:40:25;5.17;;;2.93;;
13927;SDS011;7036;50.834;4.718;2022-11-10T14:42:53;5.38;;;3.05;;
13927;SDS011;7036;50.834;4.718;2022-11-10T14:45:22;7.20;;;3.35;;
13927;SDS011;7036;50.834;4.718;2022-11-10T14:47:50;5.80;;;2.92;;
13927;SDS011;7036;50.834;4.718;2022-11-10T14:50:18;5.15;;;2.50;;
13927;SDS011;7036;50.834;4.718;2022-11-10T14:52:45;5.80;;;2.70;;
13927;SDS011;7036;50.834;4.718;2022-11-10T14:55:20;5.43;;;3.15;;
13927;SDS011;7036;50.834;4.718;2022-11-10T14:57:51;4.97;;;2.83;;
13927;SDS011;7036;50.834;4.718;2022-11-10T15:00:21;4.97;;;2.57;;
13927;SDS011;7036;50.834;4.718;2022-11-10T15:02:46;4.70;;;2.70;;
13927;SDS011;7036;50.834;4.718;2022-11-10T15:05:14;5.93;;;2.43;;
13927;SDS011;7036;50.834;4.718;2022-11-10T15:07:40;5.40;;;2.30;;
13927;SDS011;7036;50.834;4.718;2022-11-10T15:10:18;5.63;;;2.38;;
13927;SDS011;7036;50.834;4.718;2022-11-10T15:12:56;7.30;;;2.87;;
13927;SDS011;7036;50.834;4.718;2022-11-10T15:15:19;5.43;;;2.65;;
13927;SDS011;7036;50.834;4.718;2022-11-10T15:17:42;4.50;;;2.40;;
13927;SDS011;7036;50.834;4.718;2022-11-10T15:22:56;4.20;;;2.13;;
13927;SDS011;7036;50.834;4.718;2022-11-10T15:25:23;6.90;;;2.55;;
13927;SDS011;7036;50.834;4.718;2022-11-10T15:27:56;4.80;;;1.95;;
13927;SDS011;7036;50.834;4.718;2022-11-10T15:30:22;4.13;;;2.03;;
13927;SDS011;7036;50.834;4.718;2022-11-10T15:32:49;7.80;;;2.50;;
13927;SDS011;7036;50.834;4.718;2022-11-10T15:43:23;5.10;;;2.10;;
13927;SDS011;7036;50.834;4.718;2022-11-10T15:45:45;8.00;;;2.27;;
13927;SDS011;7036;50.834;4.718;2022-11-10T15:48:12;4.37;;;2.40;;
13927;SDS011;7036;50.834;4.718;2022-11-10T15:50:40;5.55;;;1.95;;
13927;SDS011;7036;50.834;4.718;2022-11-10T15:53:26;5.20;;;2.28;;
13927;SDS011;7036;50.834;4.718;2022-11-10T15:55:38;3.10;;;1.97;;
13927;SDS011;7036;50.834;4.718;2022-11-10T15:58:09;4.93;;;2.33;;
13927;SDS011;7036;50.834;4.718;2022-11-10T16:00:34;4.57;;;2.30;;
13927;SDS011;7036;50.834;4.718;2022-11-10T16:03:01;3.80;;;2.07;;
13927;SDS011;7036;50.834;4.718;2022-11-10T16:05:28;5.50;;;2.45;;
13927;SDS011;7036;50.834;4.718;2022-11-10T16:07:56;4.40;;;2.20;;
13927;SDS011;7036;50.834;4.718;2022-11-10T16:10:23;5.63;;;1.90;;
13927;SDS011;7036;50.834;4.718;2022-11-10T16:12:51;6.40;;;2.20;;
13927;SDS011;7036;50.834;4.718;2022-11-10T16:15:19;5.53;;;2.40;;
13927;SDS011;7036;50.834;4.718;2022-11-10T16:17:47;5.78;;;1.90;;
13927;SDS011;7036;50.834;4.718;2022-11-10T16:20:18;6.95;;;2.33;;
13927;SDS011;7036;50.834;4.718;2022-11-10T16:22:43;9.80;;;2.80;;
13927;SDS011;7036;50.834;4.718;2022-11-10T16:25:11;4.13;;;1.80;;
13927;SDS011;7036;50.834;4.718;2022-11-10T16:27:38;5.68;;;2.30;;
13927;SDS011;7036;50.834;4.718;2022-11-10T16:30:11;5.65;;;2.17;;
13927;SDS011;7036;50.834;4.718;2022-11-10T16:32:33;8.18;;;2.63;;
13927;SDS011;7036;50.834;4.718;2022-11-10T16:35:01;10.63;;;2.97;;
13927;SDS011;7036;50.834;4.718;2022-11-10T16:37:29;6.70;;;2.78;;
13927;SDS011;7036;50.834;4.718;2022-11-10T16:39:57;6.40;;;2.55;;
13927;SDS011;7036;50.834;4.718;2022-11-10T16:42:25;5.95;;;3.15;;
13927;SDS011;7036;50.834;4.718;2022-11-10T16:44:53;5.47;;;2.45;;